Time;durP1;ratioP1;P1;durP2;ratioP2;P2;SDS_P1;SDS_P2;PMS_P1;PMS_P2;Temp;Humidity;BMP_temperature;BMP_pressure;BME280_temperature;BME280_humidity;BME280_pressure;Samples;Min_cycle;Max_cycle;Signal;HPM_P1;HPM_P2
2021/09/27 00:01:44;;;;;;;18.50;9.30;;;18.80;99.90;;;;;;4119362;28;20221;-80
2021/09/27 00:03:47;;;;;;;14.23;9.70;;;18.80;99.90;;;;;;4118170;28;20570;-80
2021/09/27 00:05:49;;;;;;;14.70;9.17;;;18.70;99.90;;;;;;4121217;28;20216;-80
2021/09/27 00:07:52;;;;;;;17.27;8.83;;;18.70;99.90;;;;;;4135138;28;20485;-80
2021/09/27 00:09:55;;;;;;;18.93;9.37;;;18.70;99.90;;;;;;4138878;28;20228;-80
2021/09/27 00:11:56;;;;;;;15.97;8.73;;;18.70;99.90;;;;;;4121482;28;20582;-80
2021/09/27 00:14:01;;;;;;;9.50;5.83;;;18.70;99.90;;;;;;4113099;29;20218;-80
2021/09/27 00:16:04;;;;;;;8.80;5.33;;;18.70;99.90;;;;;;4113233;28;20250;-80
2021/09/27 00:18:08;;;;;;;7.87;4.97;;;18.70;99.90;;;;;;4114453;29;20216;-80
2021/09/27 00:20:11;;;;;;;6.77;4.50;;;18.70;99.90;;;;;;4128301;28;20227;-81
2021/09/27 00:22:13;;;;;;;6.83;4.63;;;18.80;99.90;;;;;;4134088;28;20269;-81
2021/09/27 00:24:16;;;;;;;9.60;5.60;;;18.80;99.90;;;;;;4123038;28;20633;-80
2021/09/27 00:26:22;;;;;;;11.73;6.90;;;18.80;99.90;;;;;;4104324;28;20773;-80
2021/09/27 00:28:24;;;;;;;13.90;7.83;;;18.80;99.90;;;;;;4118210;28;20208;-80
2021/09/27 00:30:26;;;;;;;18.87;9.10;;;18.70;99.90;;;;;;4116382;28;20641;-81
2021/09/27 00:32:28;;;;;;;17.47;9.73;;;18.60;99.90;;;;;;4118534;28;20217;-81
2021/09/27 00:34:30;;;;;;;17.73;10.53;;;18.40;99.90;;;;;;4122319;28;20209;-83
2021/09/27 00:36:32;;;;;;;23.53;12.17;;;18.10;99.90;;;;;;4119761;28;20230;-82
2021/09/27 00:38:33;;;;;;;29.03;14.03;;;18.00;99.90;;;;;;4118787;28;20218;-81
2021/09/27 00:40:39;;;;;;;26.30;13.27;;;17.60;99.90;;;;;;4107225;28;20728;-81
2021/09/27 00:42:41;;;;;;;21.57;13.00;;;17.50;99.90;;;;;;4118587;28;20197;-82
2021/09/27 00:44:43;;;;;;;24.03;11.67;;;17.20;99.90;;;;;;4121304;28;20215;-81
2021/09/27 00:46:45;;;;;;;21.90;11.13;;;17.10;99.90;;;;;;4119676;28;20279;-82
2021/09/27 00:48:47;;;;;;;24.67;11.23;;;17.10;99.90;;;;;;4122173;28;20676;-81
2021/09/27 00:50:53;;;;;;;24.17;12.23;;;16.80;99.90;;;;;;4120527;28;20233;-83
2021/09/27 00:52:55;;;;;;;24.73;11.07;;;16.80;99.90;;;;;;4123970;28;20213;-82
2021/09/27 00:54:57;;;;;;;26.85;13.10;;;16.80;99.90;;;;;;4122231;28;20453;-83
2021/09/27 00:57:05;;;;;;;22.80;11.60;;;16.70;99.90;;;;;;4122853;28;20647;-83
2021/09/27 00:59:09;;;;;;;22.77;10.17;;;16.60;99.90;;;;;;4121063;28;20224;-83
2021/09/27 01:01:11;;;;;;;21.17;10.60;;;16.60;99.90;;;;;;4104916;29;20269;-83
2021/09/27 01:03:13;;;;;;;23.90;10.87;;;16.60;99.90;;;;;;4110347;28;20220;-83
2021/09/27 01:05:18;;;;;;;21.73;10.67;;;16.60;99.90;;;;;;4119673;28;20271;-84
2021/09/27 01:07:28;;;;;;;22.10;10.77;;;16.70;99.90;;;;;;4116922;28;20222;-85
2021/09/27 01:09:42;;;;;;;20.00;9.73;;;16.70;99.90;;;;;;4103426;28;20224;-86
2021/09/27 01:12:07;;;;;;;20.67;9.87;;;16.60;99.90;;;;;;4104069;28;20212;-85
2021/09/27 01:14:34;;;;;;;19.87;9.60;;;16.60;99.90;;;;;;4116528;28;20212;-85
2021/09/27 01:16:43;;;;;;;18.07;9.97;;;16.60;99.90;;;;;;4110930;28;20316;-85
2021/09/27 01:18:58;;;;;;;18.60;9.83;;;16.70;99.90;;;;;;4100461;29;20217;-85
2021/09/27 01:21:30;;;;;;;21.80;9.47;;;16.70;99.90;;;;;;4115390;28;20201;-86
2021/09/27 01:24:09;;;;;;;14.43;8.37;;;16.70;99.90;;;;;;4099848;28;20644;-86
2021/09/27 01:26:26;;;;;;;16.93;8.33;;;16.70;99.90;;;;;;4056181;29;20215;-86
2021/09/27 01:28:48;;;;;;;18.17;7.87;;;16.80;99.90;;;;;;4100908;29;20194;-86
2021/09/27 01:31:22;;;;;;;15.97;7.20;;;16.70;99.90;;;;;;4105752;29;20210;-87
2021/09/27 01:33:33;;;;;;;12.77;6.77;;;16.70;99.90;;;;;;4109075;28;20212;-85
2021/09/27 01:35:47;;;;;;;13.80;6.77;;;16.70;99.90;;;;;;4124524;28;20218;-85
2021/09/27 01:38:02;;;;;;;14.83;5.87;;;16.70;99.90;;;;;;4127153;28;20247;-85
2021/09/27 01:40:14;;;;;;;13.13;6.17;;;16.70;99.90;;;;;;4124787;28;20201;-87
2021/09/27 01:42:23;;;;;;;10.87;5.03;;;16.50;99.90;;;;;;4125071;28;20224;-85
2021/09/27 01:44:31;;;;;;;10.57;5.60;;;16.60;99.90;;;;;;4126842;28;20208;-86
2021/09/27 01:46:41;;;;;;;9.67;4.47;;;16.50;99.90;;;;;;4127657;28;20295;-86
2021/09/27 01:48:51;;;;;;;7.63;4.37;;;16.50;99.90;;;;;;4128235;28;20221;-86
2021/09/27 01:50:59;;;;;;;9.03;4.63;;;16.60;99.90;;;;;;4128164;28;20204;-86
2021/09/27 01:53:05;;;;;;;9.33;4.50;;;16.50;99.90;;;;;;4111560;28;20213;-86
2021/09/27 01:55:11;;;;;;;9.60;4.77;;;16.60;99.90;;;;;;4103688;29;20243;-85
2021/09/27 01:57:21;;;;;;;8.83;4.40;;;16.50;99.90;;;;;;4113289;28;20797;-85
2021/09/27 01:59:32;;;;;;;8.30;4.37;;;16.50;99.90;;;;;;4116152;28;20754;-86
2021/09/27 02:01:42;;;;;;;8.60;4.57;;;16.50;99.90;;;;;;4123054;28;20686;-86
2021/09/27 02:03:53;;;;;;;7.40;4.33;;;16.50;99.90;;;;;;4118114;28;20276;-88
2021/09/27 02:06:02;;;;;;;9.53;4.83;;;16.60;99.90;;;;;;4127426;28;20275;-85
2021/09/27 02:08:09;;;;;;;10.63;4.83;;;16.50;99.90;;;;;;4132439;28;20235;-85
2021/09/27 02:10:16;;;;;;;10.43;5.23;;;16.50;99.90;;;;;;4125761;28;20345;-86
2021/09/27 02:12:24;;;;;;;8.30;4.37;;;16.60;99.90;;;;;;4108526;28;20660;-86
2021/09/27 02:14:32;;;;;;;7.90;4.23;;;16.50;99.90;;;;;;4118014;28;20652;-86
2021/09/27 02:16:41;;;;;;;9.67;4.63;;;16.50;99.90;;;;;;4124521;28;20241;-87
2021/09/27 02:18:49;;;;;;;10.50;5.03;;;16.50;99.90;;;;;;4117327;28;20680;-88
2021/09/27 02:20:56;;;;;;;9.00;4.53;;;16.50;99.90;;;;;;4114629;28;20579;-86
2021/09/27 02:23:08;;;;;;;9.47;4.73;;;16.50;99.90;;;;;;4120310;28;20640;-86
2021/09/27 02:25:15;;;;;;;9.67;4.87;;;16.40;99.90;;;;;;4121370;28;20213;-87
2021/09/27 02:27:17;;;;;;;12.93;5.43;;;16.50;99.90;;;;;;4110950;28;20248;-87
2021/09/27 02:29:22;;;;;;;11.63;5.37;;;16.40;99.90;;;;;;4134100;28;20207;-88
2021/09/27 02:31:33;;;;;;;13.17;5.60;;;16.40;99.90;;;;;;4129127;28;20227;-87
2021/09/27 02:33:41;;;;;;;11.83;5.17;;;16.40;99.90;;;;;;4129058;28;20218;-87
2021/09/27 02:35:51;;;;;;;11.10;5.17;;;16.40;99.90;;;;;;4116295;28;20248;-86
2021/09/27 02:38:01;;;;;;;10.07;5.40;;;16.50;99.90;;;;;;4131196;28;20249;-87
2021/09/27 02:40:08;;;;;;;11.37;5.30;;;16.40;99.90;;;;;;4134679;28;20230;-87
2021/09/27 02:42:15;;;;;;;11.80;5.20;;;16.40;99.90;;;;;;4125498;28;20235;-87
2021/09/27 02:44:17;;;;;;;13.43;6.70;;;16.40;99.90;;;;;;4117474;28;20713;-88
2021/09/27 02:46:20;;;;;;;13.63;6.07;;;16.40;99.90;;;;;;4117147;28;20276;-88
2021/09/27 02:48:32;;;;;;;10.93;5.67;;;16.40;99.90;;;;;;4117186;28;20291;-88
2021/09/27 02:50:34;;;;;;;11.73;6.17;;;16.40;99.90;;;;;;4113468;28;20222;-86
2021/09/27 02:52:37;;;;;;;14.63;6.53;;;16.40;99.90;;;;;;4107651;28;20298;-87
2021/09/27 02:54:43;;;;;;;12.10;6.43;;;16.30;99.90;;;;;;4118170;28;20629;-86
2021/09/27 02:56:59;;;;;;;13.27;6.87;;;16.30;99.90;;;;;;4117287;28;20236;-87
2021/09/27 02:59:14;;;;;;;16.20;6.90;;;16.30;99.90;;;;;;4116969;28;20642;-87
2021/09/27 03:01:23;;;;;;;17.97;7.37;;;16.30;99.90;;;;;;4117082;28;20647;-88
2021/09/27 03:03:36;;;;;;;13.93;7.10;;;16.20;99.90;;;;;;4116906;28;20217;-87
2021/09/27 03:05:51;;;;;;;13.70;7.07;;;16.30;99.90;;;;;;4118315;28;20201;-88
2021/09/27 03:08:09;;;;;;;21.93;8.53;;;16.30;99.90;;;;;;4117508;28;20251;-87
2021/09/27 03:10:22;;;;;;;15.67;7.73;;;16.30;99.90;;;;;;4110963;28;20213;-87
2021/09/27 03:12:38;;;;;;;18.53;8.03;;;16.30;99.90;;;;;;4105422;28;20684;-87
2021/09/27 03:15:16;;;;;;;17.20;8.07;;;16.30;99.90;;;;;;4115245;28;20204;-86
2021/09/27 03:17:26;;;;;;;20.10;9.10;;;16.30;99.90;;;;;;4101031;28;20299;-87
2021/09/27 03:19:43;;;;;;;15.40;8.03;;;16.30;99.90;;;;;;4117684;28;20286;-86
2021/09/27 03:21:53;;;;;;;15.83;7.80;;;16.20;99.90;;;;;;4122670;28;20224;-87
2021/09/27 03:24:07;;;;;;;17.63;7.90;;;16.30;99.90;;;;;;4133876;28;20214;-87
2021/09/27 03:26:23;;;;;;;14.97;7.43;;;16.30;99.90;;;;;;4128177;28;20450;-87
2021/09/27 03:28:34;;;;;;;15.33;7.87;;;16.30;99.90;;;;;;4104676;28;20254;-87
2021/09/27 03:30:46;;;;;;;14.77;7.50;;;16.30;99.90;;;;;;4117141;28;20220;-87
2021/09/27 03:32:59;;;;;;;17.87;8.67;;;16.30;99.90;;;;;;4116779;28;20205;-87
2021/09/27 03:35:07;;;;;;;20.90;8.27;;;16.30;99.90;;;;;;4117501;28;20275;-89
2021/09/27 03:37:24;;;;;;;14.17;7.80;;;16.30;99.90;;;;;;4116378;28;20655;-86
2021/09/27 03:39:34;;;;;;;13.97;7.33;;;16.30;99.90;;;;;;4117647;28;20224;-87
2021/09/27 03:41:41;;;;;;;14.63;7.90;;;16.30;99.90;;;;;;4116842;28;20213;-87
2021/09/27 03:43:49;;;;;;;16.03;7.73;;;16.40;99.90;;;;;;4122816;28;20267;-87
2021/09/27 03:45:59;;;;;;;13.73;7.30;;;16.40;99.90;;;;;;4106801;28;20201;-86
2021/09/27 03:48:05;;;;;;;15.17;8.23;;;16.40;99.90;;;;;;4099945;29;20640;-88
2021/09/27 03:50:16;;;;;;;14.90;8.27;;;16.40;99.90;;;;;;4100866;29;20264;-87
2021/09/27 03:52:21;;;;;;;14.63;8.57;;;16.40;99.90;;;;;;4102269;28;20204;-86
2021/09/27 03:54:31;;;;;;;14.33;7.87;;;16.40;99.90;;;;;;4101195;29;20233;-86
2021/09/27 03:56:39;;;;;;;14.33;7.57;;;16.30;99.90;;;;;;4101300;28;20271;-87
2021/09/27 03:58:46;;;;;;;13.63;7.67;;;16.40;99.90;;;;;;4101808;29;20240;-86
2021/09/27 04:00:58;;;;;;;13.73;7.63;;;16.40;99.90;;;;;;4101543;29;20672;-86
2021/09/27 04:03:07;;;;;;;14.03;7.73;;;16.40;99.90;;;;;;4115308;28;20219;-86
2021/09/27 04:05:17;;;;;;;13.97;8.13;;;16.40;99.90;;;;;;4118236;28;20609;-87
2021/09/27 04:07:30;;;;;;;13.27;7.93;;;16.50;99.90;;;;;;4129263;28;20770;-86
2021/09/27 04:09:43;;;;;;;14.73;8.13;;;16.40;99.90;;;;;;4110302;28;20210;-86
2021/09/27 04:11:54;;;;;;;15.67;8.23;;;16.40;99.90;;;;;;4106401;28;20205;-87
2021/09/27 04:14:07;;;;;;;17.83;8.87;;;16.40;99.90;;;;;;4117409;28;20213;-88
2021/09/27 04:16:20;;;;;;;15.97;8.07;;;16.40;99.90;;;;;;4114965;28;20648;-86
2021/09/27 04:18:30;;;;;;;13.70;7.70;;;16.40;99.90;;;;;;4116613;28;20714;-87
2021/09/27 04:20:43;;;;;;;15.47;8.60;;;16.40;99.90;;;;;;4116123;28;20220;-87
2021/09/27 04:22:55;;;;;;;16.50;8.40;;;16.50;99.90;;;;;;4116983;28;20231;-86
2021/09/27 04:25:08;;;;;;;17.93;9.37;;;16.40;99.90;;;;;;4111342;28;20643;-87
2021/09/27 04:27:34;;;;;;;16.77;8.70;;;16.40;99.90;;;;;;4132559;28;20259;-87
2021/09/27 04:29:57;;;;;;;15.97;8.93;;;16.40;99.90;;;;;;4125833;28;20216;-86
2021/09/27 04:32:06;;;;;;;18.97;9.43;;;16.40;99.90;;;;;;4109281;28;20715;-86
2021/09/27 04:34:22;;;;;;;19.50;10.20;;;16.40;99.90;;;;;;4101941;28;20229;-87
2021/09/27 04:36:28;;;;;;;18.73;9.47;;;16.40;99.90;;;;;;4099338;28;20233;-87
2021/09/27 04:38:36;;;;;;;19.27;9.47;;;16.40;99.90;;;;;;4100565;29;20329;-87
2021/09/27 04:40:57;;;;;;;18.60;9.47;;;16.40;99.90;;;;;;4112504;28;20216;-87
2021/09/27 04:43:17;;;;;;;17.50;9.33;;;16.40;99.90;;;;;;4100525;29;20237;-87
2021/09/27 04:45:50;;;;;;;14.80;8.43;;;16.50;99.90;;;;;;4100643;29;20209;-86
2021/09/27 04:48:02;;;;;;;14.40;8.37;;;16.40;99.90;;;;;;4102056;28;20594;-86
2021/09/27 04:50:16;;;;;;;14.27;8.00;;;16.40;99.90;;;;;;4110324;28;20209;-86
2021/09/27 04:52:25;;;;;;;15.47;8.47;;;16.40;99.90;;;;;;4100398;29;20600;-86
2021/09/27 04:55:08;;;;;;;15.27;8.63;;;16.40;99.90;;;;;;4100443;29;20222;-87
2021/09/27 04:57:19;;;;;;;16.57;8.57;;;16.40;99.90;;;;;;4105630;28;20233;-86
2021/09/27 04:59:33;;;;;;;16.27;8.43;;;16.40;99.90;;;;;;4112601;28;20321;-87
2021/09/27 05:01:52;;;;;;;17.70;9.30;;;16.40;99.90;;;;;;4115775;28;20220;-87
2021/09/27 05:04:08;;;;;;;17.40;9.30;;;16.40;99.90;;;;;;4116352;28;20219;-86
2021/09/27 05:06:27;;;;;;;15.43;8.73;;;16.30;99.90;;;;;;4114506;28;20220;-87
2021/09/27 05:08:53;;;;;;;17.70;9.40;;;16.40;99.90;;;;;;4099225;29;20673;-86
2021/09/27 05:11:24;;;;;;;16.53;8.77;;;16.40;99.90;;;;;;4100607;29;20225;-86
2021/09/27 05:13:59;;;;;;;16.80;9.43;;;16.40;99.90;;;;;;4111652;28;20246;-86
2021/09/27 05:16:10;;;;;;;17.93;10.00;;;16.40;99.90;;;;;;4108700;28;20217;-87
2021/09/27 05:18:49;;;;;;;19.07;9.57;;;16.40;99.90;;;;;;4107794;28;20597;-86
2021/09/27 05:21:04;;;;;;;18.33;9.57;;;16.40;99.90;;;;;;4116180;28;20656;-86
2021/09/27 05:23:12;;;;;;;17.73;10.03;;;16.40;99.90;;;;;;4116852;28;20574;-86
2021/09/27 05:25:50;;;;;;;16.93;9.70;;;16.40;99.90;;;;;;4114771;28;20219;-87
2021/09/27 05:28:33;;;;;;;19.47;10.17;;;16.40;99.90;;;;;;4115060;28;20229;-87
2021/09/27 05:31:05;;;;;;;20.03;10.93;;;16.40;99.90;;;;;;4081778;28;20687;-86
2021/09/27 05:33:20;;;;;;;18.53;10.77;;;16.40;99.90;;;;;;4116483;28;20217;-88
2021/09/27 05:35:36;;;;;;;18.10;9.77;;;16.40;99.90;;;;;;4124892;28;20204;-87
2021/09/27 05:37:54;;;;;;;20.90;10.50;;;16.40;99.90;;;;;;4129914;28;20581;-86
2021/09/27 05:40:15;;;;;;;16.63;9.70;;;16.30;99.90;;;;;;4123355;28;20203;-86
2021/09/27 05:42:24;;;;;;;20.90;11.43;;;16.40;99.90;;;;;;4119409;28;20217;-86
2021/09/27 05:44:36;;;;;;;22.40;11.03;;;16.40;99.90;;;;;;4132515;28;20221;-87
2021/09/27 05:46:57;;;;;;;20.20;10.97;;;16.40;99.90;;;;;;4131476;28;20236;-85
2021/09/27 05:49:04;;;;;;;19.93;10.23;;;16.40;99.90;;;;;;4132733;28;20186;-86
2021/09/27 05:51:11;;;;;;;21.30;11.87;;;16.40;99.90;;;;;;4130939;28;20255;-86
2021/09/27 05:53:22;;;;;;;19.03;10.50;;;16.40;99.90;;;;;;4130868;28;20223;-86
2021/09/27 05:55:33;;;;;;;21.63;10.67;;;16.40;99.90;;;;;;4132879;28;20721;-86
2021/09/27 05:57:44;;;;;;;19.40;10.43;;;16.40;99.90;;;;;;4124255;28;20312;-86
2021/09/27 05:59:53;;;;;;;20.77;10.97;;;16.40;99.90;;;;;;4110174;28;20230;-85
2021/09/27 06:02:10;;;;;;;21.17;11.03;;;16.40;99.90;;;;;;4098513;29;20225;-86
2021/09/27 06:04:25;;;;;;;18.43;10.80;;;16.40;99.90;;;;;;4099679;29;20277;-85
2021/09/27 06:06:34;;;;;;;21.27;10.60;;;16.40;99.90;;;;;;4119264;28;20234;-86
2021/09/27 06:08:45;;;;;;;20.90;11.37;;;16.50;99.90;;;;;;4131034;28;20634;-86
2021/09/27 06:10:55;;;;;;;19.10;10.27;;;16.40;99.90;;;;;;4097993;29;20293;-86
2021/09/27 06:13:09;;;;;;;21.07;11.10;;;16.40;99.90;;;;;;4114387;28;20603;-86
2021/09/27 06:15:14;;;;;;;21.67;11.77;;;16.40;99.90;;;;;;4111455;28;20602;-85
2021/09/27 06:17:39;;;;;;;20.67;11.43;;;16.50;99.90;;;;;;4104887;28;20321;-86
2021/09/27 06:19:46;;;;;;;22.67;11.97;;;16.50;99.90;;;;;;4102599;28;20272;-86
2021/09/27 06:22:04;;;;;;;20.83;11.93;;;16.50;99.90;;;;;;4128313;28;20704;-86
2021/09/27 06:24:20;;;;;;;28.87;13.90;;;16.70;99.90;;;;;;4130749;28;20196;-85
2021/09/27 06:26:25;;;;;;;22.60;12.17;;;16.50;99.90;;;;;;4114504;28;20240;-86
2021/09/27 06:28:37;;;;;;;23.30;13.17;;;16.40;99.90;;;;;;4113064;28;20236;-85
2021/09/27 06:30:44;;;;;;;25.00;12.87;;;16.50;99.90;;;;;;4114731;28;20268;-87
2021/09/27 06:32:56;;;;;;;24.63;12.77;;;16.50;99.90;;;;;;4108840;28;20217;-86
2021/09/27 06:35:03;;;;;;;24.87;14.07;;;16.40;99.90;;;;;;4130010;28;20226;-86
2021/09/27 06:37:05;;;;;;;27.13;14.17;;;16.50;99.90;;;;;;4130662;28;20322;-86
2021/09/27 06:39:15;;;;;;;25.70;13.00;;;16.40;99.90;;;;;;4129841;28;20275;-86
2021/09/27 06:41:20;;;;;;;25.23;13.37;;;16.50;99.90;;;;;;4126846;28;20217;-86
2021/09/27 06:43:24;;;;;;;26.17;13.77;;;16.50;99.90;;;;;;4115224;28;20216;-86
2021/09/27 06:45:26;;;;;;;24.07;13.20;;;16.40;99.90;;;;;;4114781;28;20221;-86
2021/09/27 06:47:28;;;;;;;22.30;12.73;;;16.40;99.90;;;;;;4113605;28;20716;-85
2021/09/27 06:49:31;;;;;;;22.00;12.17;;;16.40;99.90;;;;;;4112815;28;20581;-86
2021/09/27 06:51:33;;;;;;;21.27;12.10;;;16.50;99.90;;;;;;4098273;29;20210;-86
2021/09/27 06:53:35;;;;;;;24.10;12.97;;;16.50;99.90;;;;;;4098835;29;20222;-86
2021/09/27 06:55:37;;;;;;;22.77;12.63;;;16.40;99.90;;;;;;4120089;28;20291;-86
2021/09/27 06:57:39;;;;;;;23.93;12.33;;;16.50;99.90;;;;;;4122860;28;20280;-86
2021/09/27 06:59:41;;;;;;;19.70;11.33;;;16.50;99.90;;;;;;4098140;28;20256;-85
2021/09/27 07:01:43;;;;;;;19.83;10.40;;;16.50;99.90;;;;;;4102517;28;20232;-85
2021/09/27 07:03:44;;;;;;;21.40;11.30;;;16.50;99.90;;;;;;4113814;28;20217;-86
2021/09/27 07:05:47;;;;;;;18.90;10.30;;;16.40;99.90;;;;;;4116810;28;20209;-86
2021/09/27 07:07:49;;;;;;;19.73;10.80;;;16.40;99.90;;;;;;4110593;28;20233;-86
2021/09/27 07:09:51;;;;;;;19.43;10.17;;;16.40;99.90;;;;;;4116418;28;20216;-86
2021/09/27 07:11:53;;;;;;;18.70;10.57;;;16.50;99.90;;;;;;4116760;28;20205;-86
2021/09/27 07:13:54;;;;;;;17.53;10.00;;;16.30;99.90;;;;;;4116786;28;20213;-85
2021/09/27 07:15:56;;;;;;;18.77;10.10;;;16.50;99.90;;;;;;4113413;28;20202;-86
2021/09/27 07:17:58;;;;;;;19.60;10.27;;;16.50;99.90;;;;;;4114881;28;20233;-85
2021/09/27 07:20:00;;;;;;;18.13;10.30;;;16.40;99.90;;;;;;4116903;28;20225;-85
2021/09/27 07:22:04;;;;;;;19.27;10.77;;;16.50;99.90;;;;;;4116466;28;20255;-85
2021/09/27 07:24:07;;;;;;;19.63;10.40;;;16.50;99.90;;;;;;4117401;28;20229;-85
2021/09/27 07:26:10;;;;;;;18.73;9.77;;;16.50;99.90;;;;;;4100953;28;20218;-85
2021/09/27 07:28:12;;;;;;;18.47;9.93;;;16.50;99.90;;;;;;4108813;28;20723;-85
2021/09/27 07:30:15;;;;;;;17.03;9.63;;;16.50;99.90;;;;;;4115920;28;20285;-84
2021/09/27 07:32:17;;;;;;;16.37;9.23;;;16.60;99.90;;;;;;4116418;28;20209;-85
2021/09/27 07:34:20;;;;;;;16.40;9.43;;;16.60;99.90;;;;;;4115802;28;20652;-85
2021/09/27 07:36:22;;;;;;;16.17;9.30;;;16.60;99.90;;;;;;4103104;28;20701;-86
2021/09/27 07:38:25;;;;;;;16.50;9.60;;;16.70;99.90;;;;;;4103793;29;20214;-85
2021/09/27 07:40:31;;;;;;;16.43;9.47;;;16.70;99.90;;;;;;4111141;28;20601;-84
2021/09/27 07:42:33;;;;;;;15.43;9.40;;;16.70;99.90;;;;;;4118245;28;20217;-86
2021/09/27 07:44:36;;;;;;;16.13;9.30;;;16.70;99.90;;;;;;4116943;28;20217;-85
2021/09/27 07:46:38;;;;;;;17.83;9.80;;;16.80;99.90;;;;;;4117852;28;20237;-85
2021/09/27 07:48:40;;;;;;;15.33;9.27;;;16.80;99.90;;;;;;4117069;28;20546;-85
2021/09/27 07:50:44;;;;;;;16.10;9.37;;;16.80;99.90;;;;;;4119031;28;20244;-85
2021/09/27 07:52:47;;;;;;;18.13;9.53;;;16.90;99.90;;;;;;4118736;28;20213;-85
2021/09/27 07:54:51;;;;;;;16.10;9.67;;;16.90;99.90;;;;;;4118347;28;20209;-85
2021/09/27 07:56:53;;;;;;;15.70;9.27;;;17.00;99.90;;;;;;4120192;28;20230;-85
2021/09/27 07:58:55;;;;;;;13.73;8.53;;;17.00;99.90;;;;;;4121371;28;20225;-85
2021/09/27 08:00:57;;;;;;;16.83;9.10;;;17.00;99.90;;;;;;4119026;28;20217;-85
2021/09/27 08:02:59;;;;;;;14.30;8.33;;;17.10;99.90;;;;;;4120541;28;20209;-85
2021/09/27 08:05:00;;;;;;;14.03;8.73;;;17.00;99.90;;;;;;4120625;28;20645;-85
2021/09/27 08:07:03;;;;;;;13.33;8.20;;;17.00;99.90;;;;;;4118829;28;20228;-85
2021/09/27 08:09:06;;;;;;;16.03;8.53;;;17.00;99.90;;;;;;4121472;28;20269;-85
2021/09/27 08:11:10;;;;;;;13.77;8.23;;;17.00;99.90;;;;;;4121566;28;20248;-85
2021/09/27 08:13:13;;;;;;;12.80;8.00;;;17.10;99.90;;;;;;4122463;28;20211;-84
2021/09/27 08:15:18;;;;;;;13.87;8.67;;;17.10;99.90;;;;;;4128388;28;20193;-86
2021/09/27 08:17:20;;;;;;;12.90;7.93;;;17.20;99.90;;;;;;4132793;28;20208;-86
2021/09/27 08:19:25;;;;;;;13.57;8.97;;;17.30;99.90;;;;;;4135274;28;20221;-86
2021/09/27 08:21:26;;;;;;;14.77;8.77;;;17.30;99.90;;;;;;4135643;28;20238;-86
2021/09/27 08:23:28;;;;;;;13.87;8.40;;;17.30;99.90;;;;;;4135436;28;20230;-86
2021/09/27 08:25:30;;;;;;;11.90;8.17;;;17.40;99.90;;;;;;4127036;28;20301;-84
2021/09/27 08:27:34;;;;;;;13.57;8.07;;;17.40;99.90;;;;;;4120487;28;20226;-85
2021/09/27 08:29:36;;;;;;;14.87;8.70;;;17.40;99.90;;;;;;4119774;28;20214;-85
2021/09/27 08:31:40;;;;;;;12.47;8.17;;;17.50;99.90;;;;;;4118346;28;20268;-85
2021/09/27 08:33:42;;;;;;;14.23;8.63;;;17.50;99.90;;;;;;4117975;28;20294;-85
2021/09/27 08:35:44;;;;;;;14.33;8.37;;;17.50;99.90;;;;;;4116278;28;20214;-85
2021/09/27 08:37:47;;;;;;;13.87;9.00;;;17.50;99.90;;;;;;4117750;28;20229;-87
2021/09/27 08:39:49;;;;;;;14.70;8.33;;;17.60;99.90;;;;;;4114593;28;20229;-86
2021/09/27 08:41:55;;;;;;;13.93;8.90;;;17.60;99.90;;;;;;4115352;28;20625;-85
2021/09/27 08:44:14;;;;;;;17.10;9.70;;;17.60;99.90;;;;;;4119632;28;20676;-84
2021/09/27 08:46:22;;;;;;;15.80;9.57;;;17.60;99.90;;;;;;4116403;28;20221;-86
2021/09/27 08:48:32;;;;;;;12.93;8.70;;;17.50;99.90;;;;;;4120118;28;20616;-84
2021/09/27 08:50:37;;;;;;;13.60;8.30;;;17.50;99.90;;;;;;4112250;28;20659;-87
2021/09/27 08:52:41;;;;;;;15.70;9.37;;;17.60;99.90;;;;;;4117164;28;20575;-84
2021/09/27 08:54:44;;;;;;;15.10;9.53;;;17.70;99.90;;;;;;4117680;28;20218;-86
2021/09/27 08:56:53;;;;;;;15.10;10.27;;;17.60;99.90;;;;;;4115295;28;20659;-85
2021/09/27 08:59:03;;;;;;;14.20;8.73;;;17.70;99.90;;;;;;4121617;28;20206;-84
2021/09/27 09:01:10;;;;;;;17.47;9.70;;;17.70;99.90;;;;;;4109532;28;20216;-85
2021/09/27 09:03:22;;;;;;;14.63;9.50;;;17.70;99.90;;;;;;4112421;28;20213;-86
2021/09/27 09:05:30;;;;;;;15.20;9.33;;;17.80;99.90;;;;;;4103098;28;20215;-85
2021/09/27 09:07:33;;;;;;;14.53;8.77;;;17.80;99.90;;;;;;4115713;28;20229;-89
2021/09/27 09:09:41;;;;;;;14.53;9.23;;;17.80;99.90;;;;;;4115033;28;20221;-87
2021/09/27 09:11:48;;;;;;;15.17;9.10;;;17.80;99.90;;;;;;4099582;28;20278;-86
2021/09/27 09:13:57;;;;;;;14.73;9.03;;;17.90;99.90;;;;;;4109848;28;20292;-88
2021/09/27 09:16:05;;;;;;;14.37;9.20;;;17.90;99.90;;;;;;4110870;28;20213;-84
2021/09/27 09:18:12;;;;;;;15.20;9.93;;;18.00;99.90;;;;;;4119760;28;20210;-85
2021/09/27 09:20:18;;;;;;;17.93;9.83;;;18.00;99.90;;;;;;4115680;28;20777;-86
2021/09/27 09:22:27;;;;;;;16.90;9.90;;;18.00;99.90;;;;;;4116010;28;20226;-86
2021/09/27 09:24:34;;;;;;;18.43;10.47;;;18.10;99.90;;;;;;4116285;28;20227;-86
2021/09/27 09:26:39;;;;;;;13.80;8.80;;;18.10;99.90;;;;;;4128512;28;20233;-86
2021/09/27 09:28:44;;;;;;;14.90;9.93;;;18.10;99.90;;;;;;4116518;28;20235;-86
2021/09/27 09:30:52;;;;;;;15.30;9.47;;;18.20;99.90;;;;;;4117392;28;20217;-87
2021/09/27 09:32:55;;;;;;;18.27;10.57;;;18.20;99.90;;;;;;4115887;28;20675;-86
2021/09/27 09:35:17;;;;;;;16.90;10.13;;;18.20;99.90;;;;;;4120063;28;20283;-86
2021/09/27 09:37:25;;;;;;;15.70;10.03;;;18.30;99.90;;;;;;4121744;28;20244;-86
2021/09/27 09:39:31;;;;;;;16.03;10.33;;;18.30;99.90;;;;;;4112063;28;20246;-85
2021/09/27 09:41:44;;;;;;;17.93;10.27;;;18.40;99.90;;;;;;4129000;28;20246;-86
2021/09/27 09:43:48;;;;;;;17.87;10.80;;;18.40;99.90;;;;;;4133727;28;20206;-85
2021/09/27 09:46:03;;;;;;;18.37;11.40;;;18.50;99.90;;;;;;4122857;28;20245;-86
2021/09/27 09:48:20;;;;;;;17.83;11.20;;;18.50;99.90;;;;;;4116816;28;20226;-85
2021/09/27 09:50:30;;;;;;;17.40;10.97;;;18.60;99.90;;;;;;4130670;28;20214;-86
2021/09/27 09:52:39;;;;;;;14.60;9.50;;;18.60;99.90;;;;;;4122625;28;20243;-86
2021/09/27 09:54:49;;;;;;;14.67;9.67;;;18.70;99.90;;;;;;4125341;28;20267;-85
2021/09/27 09:57:03;;;;;;;14.23;9.70;;;18.70;99.90;;;;;;4118795;28;20231;-86
2021/09/27 09:59:17;;;;;;;15.30;10.70;;;18.70;99.90;;;;;;4114636;28;20727;-86
2021/09/27 10:01:23;;;;;;;14.70;9.77;;;18.90;99.90;;;;;;4122451;28;20667;-84
2021/09/27 10:03:33;;;;;;;14.93;10.43;;;18.90;99.90;;;;;;4116156;28;20207;-86
2021/09/27 10:05:41;;;;;;;18.00;10.83;;;18.90;99.90;;;;;;4115051;28;20220;-87
2021/09/27 10:07:47;;;;;;;14.70;10.50;;;18.90;99.90;;;;;;4117638;28;20236;-87
2021/09/27 10:09:57;;;;;;;13.97;10.10;;;19.00;99.90;;;;;;4114751;28;20219;-87
2021/09/27 10:12:02;;;;;;;14.97;9.90;;;19.10;99.90;;;;;;4114275;28;20586;-86
2021/09/27 10:14:32;;;;;;;22.00;10.17;;;19.10;99.90;;;;;;4115538;28;20220;-87
2021/09/27 10:16:41;;;;;;;16.80;9.63;;;19.10;99.90;;;;;;4115497;28;20716;-87
2021/09/27 10:18:46;;;;;;;16.23;9.57;;;19.00;99.90;;;;;;4118538;28;20625;-87
2021/09/27 10:21:00;;;;;;;14.00;9.93;;;19.10;99.90;;;;;;4110704;28;20267;-88
2021/09/27 10:23:05;;;;;;;13.53;9.30;;;19.20;99.90;;;;;;4115344;28;20220;-87
2021/09/27 10:25:30;;;;;;;15.37;10.00;;;19.20;99.90;;;;;;4115719;28;20220;-87
2021/09/27 10:27:36;;;;;;;14.10;9.80;;;19.30;99.90;;;;;;4109976;28;20243;-87
2021/09/27 10:29:39;;;;;;;14.83;9.37;;;19.30;99.90;;;;;;4098690;29;20229;-87
2021/09/27 10:31:43;;;;;;;14.07;9.73;;;19.30;99.90;;;;;;4098481;29;20596;-87
2021/09/27 10:33:54;;;;;;;13.67;9.47;;;19.40;99.90;;;;;;4100860;28;20241;-87
2021/09/27 10:35:59;;;;;;;15.87;10.10;;;19.40;99.90;;;;;;4119489;28;20213;-87
2021/09/27 10:38:05;;;;;;;15.73;10.50;;;19.40;99.90;;;;;;4098911;28;20237;-87
2021/09/27 10:40:13;;;;;;;12.77;9.47;;;19.40;99.90;;;;;;4110985;28;20233;-87
2021/09/27 10:42:19;;;;;;;14.93;9.57;;;19.30;99.90;;;;;;4121649;28;20333;-87
2021/09/27 10:44:24;;;;;;;14.50;9.73;;;19.30;99.90;;;;;;4129075;28;20216;-86
2021/09/27 10:46:30;;;;;;;13.60;10.03;;;19.30;99.90;;;;;;4136345;28;20304;-86
2021/09/27 10:48:33;;;;;;;13.03;9.60;;;19.40;99.90;;;;;;4138625;28;20201;-87
2021/09/27 10:50:42;;;;;;;16.23;10.37;;;19.40;99.90;;;;;;4135116;28;20205;-86
2021/09/27 10:52:55;;;;;;;16.37;10.23;;;19.40;99.90;;;;;;4134962;28;20209;-87
2021/09/27 10:55:01;;;;;;;14.87;9.80;;;19.50;99.90;;;;;;4102059;28;20224;-87
2021/09/27 10:57:11;;;;;;;15.20;10.10;;;19.50;99.90;;;;;;4100890;28;20222;-86
2021/09/27 10:59:26;;;;;;;13.87;10.37;;;19.60;99.90;;;;;;4102324;29;20210;-87
2021/09/27 11:01:47;;;;;;;14.27;10.57;;;19.70;99.90;;;;;;4100865;28;20221;-87